Time;durP1;ratioP1;P1;durP2;ratioP2;P2;SDS_P1;SDS_P2;PMS_P1;PMS_P2;Temp;Humidity;BMP_temperature;BMP_pressure;BME280_temperature;BME280_humidity;BME280_pressure;Samples;Min_cycle;Max_cycle;Signal;HPM_P1;HPM_P2
2022/11/02 00:00:29;;;;;;;10.55;1.55;;;;;;;21.51;40.33;101279.56;4983771;28;20031;-65
2022/11/02 00:02:55;;;;;;;11.23;1.80;;;;;;;21.49;40.40;101274.31;4984567;28;20086;-65
2022/11/02 00:05:23;;;;;;;8.65;1.30;;;;;;;21.47;40.52;101268.19;4966877;28;20025;-64
2022/11/02 00:07:53;;;;;;;4.70;1.08;;;;;;;21.46;40.84;101281.00;4993104;28;20057;-64
2022/11/02 00:10:20;;;;;;;5.85;1.17;;;;;;;21.43;40.73;101273.19;4983558;28;20026;-64
2022/11/02 00:12:45;;;;;;;5.07;1.10;;;;;;;21.42;41.17;101279.66;4971766;28;20034;-64
2022/11/02 00:15:11;;;;;;;2.63;0.70;;;;;;;21.40;40.58;101280.91;4991951;28;20035;-64
2022/11/02 00:17:38;;;;;;;7.97;1.55;;;;;;;21.39;40.46;101284.66;4983194;28;20133;-64
2022/11/02 00:20:04;;;;;;;4.10;0.50;;;;;;;21.37;40.42;101284.84;4977207;28;20022;-64
2022/11/02 00:22:30;;;;;;;4.05;0.75;;;;;;;21.36;40.49;101277.69;4983433;28;20038;-64
2022/11/02 00:24:56;;;;;;;5.13;1.00;;;;;;;21.36;40.71;101283.16;4967466;28;20030;-64
2022/11/02 00:27:22;;;;;;;8.00;1.00;;;;;;;21.33;40.75;101288.13;4976419;28;20100;-64
2022/11/02 00:29:47;;;;;;;6.00;0.93;;;;;;;21.28;41.09;101280.50;4991255;28;20039;-64
2022/11/02 00:32:13;;;;;;;6.68;0.77;;;;;;;21.25;40.24;101280.88;4967410;28;20398;-64
2022/11/02 00:34:39;;;;;;;5.32;0.60;;;;;;;21.23;40.56;101277.50;4992804;28;20501;-64
2022/11/02 00:37:04;;;;;;;5.45;1.73;;;;;;;21.25;40.99;101297.25;4962299;28;20504;-65
2022/11/02 00:39:30;;;;;;;6.43;1.23;;;;;;;21.18;40.90;101285.41;4978353;28;20042;-65
2022/11/02 00:41:55;;;;;;;8.27;1.27;;;;;;;21.18;40.73;101296.31;4994654;28;20066;-65
2022/11/02 00:44:20;;;;;;;10.65;1.20;;;;;;;21.17;40.74;101302.78;4994287;28;20042;-64
2022/11/02 00:46:46;;;;;;;7.45;0.88;;;;;;;21.13;40.86;101290.59;4962471;28;20181;-64
2022/11/02 00:49:11;;;;;;;6.88;0.93;;;;;;;21.14;40.79;101294.97;4994007;28;20031;-66
2022/11/02 00:51:36;;;;;;;3.30;0.93;;;;;;;21.18;40.91;101301.75;4978185;28;20503;-65
2022/11/02 00:54:02;;;;;;;6.60;1.65;;;;;;;21.18;41.13;101301.75;4961948;28;20428;-65
2022/11/02 00:56:27;;;;;;;6.45;1.17;;;;;;;21.17;41.27;101294.59;4993817;28;20117;-65
2022/11/02 00:58:53;;;;;;;3.25;0.68;;;;;;;21.20;41.33;101299.69;4978377;28;20046;-65
2022/11/02 01:01:18;;;;;;;10.60;1.13;;;;;;;21.21;41.62;101300.53;4994065;28;20500;-64
2022/11/02 01:03:44;;;;;;;15.57;1.58;;;;;;;21.18;41.03;101301.75;4994329;28;20436;-64
2022/11/02 01:06:11;;;;;;;3.58;1.35;;;;;;;21.19;41.04;101305.34;4993997;28;20038;-65
2022/11/02 01:08:37;;;;;;;5.78;1.02;;;;;;;21.19;40.85;101303.44;4994053;28;20031;-64
2022/11/02 01:11:22;;;;;;;2.90;0.80;;;;;;;21.15;41.51;101295.81;4978166;28;20535;-65
2022/11/02 01:13:49;;;;;;;6.43;0.85;;;;;;;21.14;41.37;101300.44;4994090;28;20500;-65
2022/11/02 01:16:15;;;;;;;6.63;0.98;;;;;;;21.13;41.05;101301.47;4993969;28;20035;-65
2022/11/02 01:18:40;;;;;;;4.43;1.52;;;;;;;21.13;41.64;101296.03;4995268;28;20416;-64
2022/11/02 01:21:06;;;;;;;3.58;0.63;;;;;;;21.11;41.22;101305.41;4993837;28;20031;-65
2022/11/02 01:23:35;;;;;;;4.70;0.88;;;;;;;21.10;41.87;101304.56;4994987;28;20095;-65
2022/11/02 01:26:03;;;;;;;6.13;0.90;;;;;;;21.09;41.56;101300.16;4994014;28;20061;-64
2022/11/02 01:28:29;;;;;;;7.22;1.75;;;;;;;21.08;41.94;101309.34;4993643;28;20504;-65
2022/11/02 01:30:54;;;;;;;6.53;0.73;;;;;;;21.08;41.15;101314.78;4993678;28;20038;-65
2022/11/02 01:33:19;;;;;;;5.13;0.93;;;;;;;21.05;41.57;101296.06;4977085;28;20057;-65
2022/11/02 01:35:45;;;;;;;5.30;1.27;;;;;;;21.06;41.38;101308.66;4977326;28;20045;-64
2022/11/02 01:38:10;;;;;;;3.95;0.80;;;;;;;21.04;41.78;101305.28;4977518;28;20030;-64
2022/11/02 01:40:39;;;;;;;8.85;0.82;;;;;;;21.04;41.31;101304.44;4993494;28;20117;-65
2022/11/02 01:43:27;;;;;;;2.35;1.08;;;;;;;21.02;42.14;101301.03;4994627;28;20109;-65
2022/11/02 01:46:10;;;;;;;6.00;0.80;;;;;;;21.01;41.61;101297.47;4977023;28;20045;-65
2022/11/02 01:48:40;;;;;;;5.82;1.02;;;;;;;20.97;41.35;101303.44;4993248;28;20056;-64
2022/11/02 01:51:09;;;;;;;2.22;0.82;;;;;;;20.97;41.30;101314.34;4976976;28;20117;-64
2022/11/02 01:53:37;;;;;;;3.92;0.80;;;;;;;20.98;41.42;101321.50;4993594;28;20400;-65
2022/11/02 01:56:03;;;;;;;3.83;0.90;;;;;;;20.96;41.85;101310.81;4993531;28;20029;-64
2022/11/02 01:58:29;;;;;;;4.07;1.10;;;;;;;20.97;41.58;101315.19;4977071;28;20048;-64
2022/11/02 02:00:55;;;;;;;3.25;1.13;;;;;;;20.99;42.26;101321.34;4977157;28;20034;-65
2022/11/02 02:03:21;;;;;;;4.75;0.98;;;;;;;20.98;41.91;101322.34;4993203;28;20034;-65
2022/11/02 02:05:55;;;;;;;6.78;1.20;;;;;;;20.99;41.56;101324.06;4994090;28;20030;-64
2022/11/02 02:08:23;;;;;;;5.03;0.57;;;;;;;21.02;42.18;101322.84;4976177;28;20026;-64
2022/11/02 02:10:48;;;;;;;5.47;0.93;;;;;;;21.01;41.83;101324.72;4993273;28;20025;-64
2022/11/02 02:13:15;;;;;;;2.53;0.60;;;;;;;20.99;42.11;101315.88;4994080;28;20496;-65
2022/11/02 02:15:50;;;;;;;1.50;0.55;;;;;;;20.99;41.71;101317.75;4976585;28;20564;-64
2022/11/02 02:18:22;;;;;;;5.97;1.20;;;;;;;21.02;41.47;101342.72;4994010;28;20034;-65
2022/11/02 02:20:51;;;;;;;7.60;0.85;;;;;;;21.00;42.18;101339.34;4992693;28;20030;-64
2022/11/02 02:23:16;;;;;;;4.25;0.70;;;;;;;20.97;42.09;101339.72;4993878;28;20429;-65
2022/11/02 02:26:06;;;;;;;2.90;0.82;;;;;;;20.97;42.45;101338.88;4994138;28;20069;-64
2022/11/02 02:28:42;;;;;;;3.72;1.40;;;;;;;20.93;41.45;101346.59;4993790;28;20035;-64
2022/11/02 02:31:35;;;;;;;5.82;0.65;;;;;;;20.92;41.61;101339.44;4992649;28;20412;-65
2022/11/02 02:34:10;;;;;;;3.47;0.68;;;;;;;20.89;41.98;101346.09;4992406;28;20130;-65
2022/11/02 02:36:46;;;;;;;10.10;1.38;;;;;;;20.88;41.75;101349.03;4976215;28;20065;-64
2022/11/02 02:39:15;;;;;;;1.33;0.73;;;;;;;20.85;41.89;101357.56;4976179;28;20125;-65
2022/11/02 02:41:46;;;;;;;4.90;0.80;;;;;;;20.81;41.74;101348.91;4992253;28;20113;-65
2022/11/02 02:44:22;;;;;;;3.88;1.17;;;;;;;20.79;42.14;101347.38;4992808;28;20023;-64
2022/11/02 02:46:58;;;;;;;3.22;0.90;;;;;;;20.78;42.25;101359.28;4992835;28;20034;-65
2022/11/02 02:49:31;;;;;;;7.25;1.17;;;;;;;20.77;41.87;101357.63;4976203;28;20041;-64
2022/11/02 02:51:58;;;;;;;10.25;1.13;;;;;;;20.75;41.83;101354.22;4992368;28;20570;-64
2022/11/02 02:54:29;;;;;;;5.72;0.60;;;;;;;20.76;42.32;101364.09;4976325;28;20026;-65
2022/11/02 02:56:57;;;;;;;4.80;1.27;;;;;;;20.73;41.90;101372.63;4992380;28;20031;-64
2022/11/02 02:59:28;;;;;;;6.93;1.75;;;;;;;20.68;41.94;101359.56;4992285;28;20784;-64
2022/11/02 03:01:54;;;;;;;9.75;1.30;;;;;;;20.68;42.59;101369.59;4992660;28;20427;-64
2022/11/02 03:04:20;;;;;;;9.85;1.10;;;;;;;20.66;41.79;101371.66;4976197;28;20113;-64
2022/11/02 03:06:51;;;;;;;4.95;0.70;;;;;;;20.63;41.74;101366.56;4976023;28;20440;-64
2022/11/02 03:09:37;;;;;;;3.97;0.90;;;;;;;20.62;42.27;101375.75;4992111;28;20439;-64
2022/11/02 03:12:09;;;;;;;2.65;0.47;;;;;;;20.58;42.23;101374.41;4993404;28;20044;-65
2022/11/02 03:14:34;;;;;;;9.63;0.80;;;;;;;20.56;42.07;101377.34;4992186;28;20488;-65
2022/11/02 03:17:37;;;;;;;3.00;0.88;;;;;;;20.54;42.51;101384.00;4993549;28;20018;-64
2022/11/02 03:20:05;;;;;;;7.70;0.90;;;;;;;20.51;41.93;101376.19;4916656;28;20069;-65
2022/11/02 03:22:45;;;;;;;3.75;0.73;;;;;;;20.48;42.50;101387.41;4995974;28;20045;-64
2022/11/02 03:25:18;;;;;;;3.75;0.60;;;;;;;20.46;42.71;101392.22;4997133;28;20034;-64
2022/11/02 03:28:06;;;;;;;2.88;0.52;;;;;;;20.46;42.74;101390.34;4979597;28;20081;-65
2022/11/02 03:30:45;;;;;;;6.90;1.10;;;;;;;20.47;42.53;101399.31;4995889;28;20030;-64
2022/11/02 03:33:50;;;;;;;3.47;0.75;;;;;;;20.47;42.58;101410.22;4979446;28;20031;-64
2022/11/02 03:36:21;;;;;;;4.57;0.95;;;;;;;20.45;42.44;101412.28;4932609;28;20041;-64
2022/11/02 03:38:50;;;;;;;5.13;1.50;;;;;;;20.42;41.56;101409.91;4979500;28;20384;-65
2022/11/02 03:41:16;;;;;;;2.33;0.60;;;;;;;20.45;41.86;101417.72;4996945;28;20508;-64
2022/11/02 03:43:43;;;;;;;5.97;0.75;;;;;;;20.41;42.34;101421.84;4996079;28;20024;-64
2022/11/02 03:46:09;;;;;;;8.55;0.80;;;;;;;20.40;42.53;101422.84;4995533;28;20030;-65
2022/11/02 03:48:39;;;;;;;9.88;1.23;;;;;;;20.39;42.28;101426.59;4995469;28;20113;-64
2022/11/02 03:51:06;;;;;;;3.00;0.70;;;;;;;20.38;42.22;101422.19;4995732;28;20030;-64
2022/11/02 03:53:40;;;;;;;5.40;1.02;;;;;;;20.35;42.14;101433.44;4995508;28;20058;-65
2022/11/02 03:56:15;;;;;;;8.98;0.80;;;;;;;20.32;42.67;101435.47;4979590;28;20028;-64
2022/11/02 03:58:40;;;;;;;8.32;1.05;;;;;;;20.30;42.12;101436.66;4995482;28;20081;-64
2022/11/02 04:01:09;;;;;;;8.38;0.77;;;;;;;20.27;42.09;101432.44;4967000;28;20465;-65
2022/11/02 04:03:38;;;;;;;7.07;0.68;;;;;;;20.24;42.24;101450.94;4975880;28;20066;-64
2022/11/02 04:06:03;;;;;;;4.05;1.13;;;;;;;20.21;42.32;101440.44;4959785;28;20062;-64
2022/11/02 04:08:34;;;;;;;3.22;0.55;;;;;;;20.23;42.99;101457.44;4959647;28;20039;-64
2022/11/02 04:16:28;;;;;;;3.85;0.63;;;;;;;20.22;42.14;101459.28;4975957;28;20045;-64
2022/11/02 04:21:37;;;;;;;5.80;0.70;;;;;;;20.17;42.39;101469.00;4956522;29;20089;-65
2022/11/02 04:26:46;;;;;;;5.03;0.68;;;;;;;20.13;42.67;101479.38;4966494;28;20112;-64
2022/11/02 04:29:12;;;;;;;8.60;2.20;;;;;;;20.15;42.20;101477.38;4975038;28;20038;-64
2022/11/02 04:31:37;;;;;;;8.15;1.13;;;;;;;20.15;42.73;101496.41;4959264;28;20031;-65
2022/11/02 04:34:03;;;;;;;5.78;1.00;;;;;;;20.15;42.17;101493.69;4959030;28;20052;-64
2022/11/02 04:36:29;;;;;;;7.07;1.85;;;;;;;20.15;42.63;101496.41;4959251;28;20122;-65
2022/11/02 04:38:54;;;;;;;7.38;1.35;;;;;;;20.15;42.35;101504.56;4976399;28;20042;-64
2022/11/02 04:44:05;;;;;;;4.15;0.50;;;;;;;20.09;42.01;101499.81;4976035;28;20041;-65
2022/11/02 04:46:32;;;;;;;3.25;1.13;;;;;;;20.07;42.42;101509.19;4976169;28;20426;-65
2022/11/02 04:48:57;;;;;;;7.97;0.80;;;;;;;20.05;42.37;101512.06;4976381;28;20043;-64
2022/11/02 04:51:24;;;;;;;7.28;1.15;;;;;;;20.05;41.97;101516.66;4976321;28;20041;-64
2022/11/02 04:53:51;;;;;;;7.07;1.55;;;;;;;20.05;42.14;101514.78;4974864;28;20035;-64
2022/11/02 04:56:17;;;;;;;4.80;1.33;;;;;;;20.04;42.26;101518.53;4958654;28;20022;-65
2022/11/02 04:58:43;;;;;;;11.90;0.77;;;;;;;20.03;42.28;101524.13;4975247;28;20445;-64
2022/11/02 05:01:13;;;;;;;3.67;1.67;;;;;;;19.99;42.53;101529.06;4975996;28;20035;-64
2022/11/02 05:03:38;;;;;;;3.30;1.13;;;;;;;19.98;42.77;101534.69;4958603;28;20035;-65
2022/11/02 05:06:04;;;;;;;11.57;0.73;;;;;;;19.96;42.70;101540.28;4958505;28;20493;-64
2022/11/02 05:08:29;;;;;;;4.07;1.23;;;;;;;19.96;42.04;101537.56;4974855;28;20085;-65
2022/11/02 05:10:56;;;;;;;5.88;0.80;;;;;;;19.96;42.16;101545.72;4975072;28;20034;-65
2022/11/02 05:13:23;;;;;;;6.75;0.95;;;;;;;19.89;42.14;101547.47;4974570;28;20034;-65
2022/11/02 05:15:48;;;;;;;5.30;0.77;;;;;;;19.92;42.67;101551.69;4974704;28;20039;-65
2022/11/02 05:18:14;;;;;;;3.17;1.17;;;;;;;19.90;42.12;101549.16;4974398;28;20031;-65
2022/11/02 05:20:39;;;;;;;4.72;0.77;;;;;;;19.90;42.25;101559.19;4974576;28;20106;-65
2022/11/02 05:23:05;;;;;;;5.90;0.82;;;;;;;19.86;42.58;101569.56;4958757;28;20062;-64
2022/11/02 05:25:31;;;;;;;5.55;0.63;;;;;;;19.82;42.23;101568.19;4974391;28;20377;-64
2022/11/02 05:27:56;;;;;;;11.82;0.80;;;;;;;19.84;42.63;101568.03;4958577;28;20027;-65
2022/11/02 05:30:22;;;;;;;5.32;0.90;;;;;;;19.85;42.91;101562.41;4974154;28;20077;-64
2022/11/02 05:32:47;;;;;;;10.88;1.65;;;;;;;19.81;42.14;101554.78;4974296;28;20568;-65
2022/11/02 05:35:12;;;;;;;5.72;0.80;;;;;;;19.86;42.20;101568.69;4974998;28;20082;-65
2022/11/02 05:37:38;;;;;;;10.10;1.25;;;;;;;19.88;42.17;101578.38;4958345;28;20023;-64
2022/11/02 05:40:04;;;;;;;3.58;0.70;;;;;;;19.86;41.96;101577.72;4957836;28;20077;-65
2022/11/02 05:42:29;;;;;;;5.97;1.05;;;;;;;19.87;42.86;101579.41;4974036;28;20038;-64
2022/11/02 05:44:55;;;;;;;7.88;1.08;;;;;;;19.87;42.22;101578.56;4974075;28;20038;-64
2022/11/02 05:47:20;;;;;;;8.45;1.23;;;;;;;19.89;42.55;101582.81;4973881;28;20107;-64
2022/11/02 05:49:46;;;;;;;12.30;1.75;;;;;;;19.89;42.34;101590.97;4975528;28;20031;-64
2022/11/02 05:52:11;;;;;;;3.30;0.77;;;;;;;19.89;42.66;101598.28;4957833;28;20034;-65
2022/11/02 05:54:36;;;;;;;6.38;0.57;;;;;;;19.89;42.55;101601.00;4975059;28;20090;-65
2022/11/02 05:57:02;;;;;;;16.42;1.60;;;;;;;19.84;42.61;101606.94;4973673;28;20047;-65
2022/11/02 05:59:27;;;;;;;8.85;0.80;;;;;;;19.82;42.70;101600.81;4973824;28;20532;-65
2022/11/02 06:01:52;;;;;;;4.38;0.80;;;;;;;19.78;42.57;101604.91;4957938;28;20448;-65
2022/11/02 06:04:18;;;;;;;3.97;0.98;;;;;;;19.80;42.66;101602.84;4974902;28;20047;-64
2022/11/02 06:06:44;;;;;;;8.40;1.00;;;;;;;19.78;42.41;101604.91;4957365;28;20118;-65
2022/11/02 06:09:09;;;;;;;5.03;0.98;;;;;;;19.77;42.61;101624.94;4957569;28;20579;-64
2022/11/02 06:11:35;;;;;;;7.75;1.10;;;;;;;19.75;42.05;101627.00;4973531;28;20031;-65
2022/11/02 06:14:02;;;;;;;8.75;0.80;;;;;;;19.73;42.49;101629.91;4957820;28;20054;-64
2022/11/02 06:16:28;;;;;;;7.85;1.13;;;;;;;19.71;42.37;101631.06;4974650;28;20062;-64
2022/11/02 06:18:53;;;;;;;7.15;1.30;;;;;;;19.71;42.58;101636.50;4973467;28;20117;-64
2022/11/02 06:21:19;;;;;;;3.35;0.80;;;;;;;19.70;42.67;101634.81;4941369;28;20035;-65
2022/11/02 06:23:46;;;;;;;6.45;1.20;;;;;;;19.71;42.93;101642.78;4956704;28;20070;-63
2022/11/02 06:26:11;;;;;;;11.77;1.13;;;;;;;19.69;42.33;101646.69;4973608;28;20053;-62
2022/11/02 06:28:37;;;;;;;9.02;1.20;;;;;;;19.66;42.58;101655.19;4973369;28;20125;-63
2022/11/02 06:31:02;;;;;;;9.65;1.30;;;;;;;19.59;42.17;101654.16;4974724;28;20049;-65
2022/11/02 06:33:28;;;;;;;3.88;1.30;;;;;;;19.56;42.17;101659.94;4972979;28;20031;-64
2022/11/02 06:35:54;;;;;;;2.25;0.63;;;;;;;19.58;42.71;101668.75;4973239;28;20031;-65
2022/11/02 06:38:20;;;;;;;9.05;0.65;;;;;;;19.58;42.70;101675.06;4972984;28;20035;-64
2022/11/02 06:40:56;;;;;;;11.52;1.20;;;;;;;19.59;42.76;101681.34;4973527;28;20481;-64
2022/11/02 06:43:22;;;;;;;8.80;1.13;;;;;;;19.60;42.73;101683.88;4973111;28;20126;-65
2022/11/02 06:45:47;;;;;;;4.20;0.73;;;;;;;19.62;42.36;101697.31;4972939;28;20210;-65
2022/11/02 06:48:13;;;;;;;6.55;0.85;;;;;;;19.59;43.07;101692.22;4973005;28;20034;-64
2022/11/02 06:50:38;;;;;;;8.80;1.30;;;;;;;19.59;42.99;101700.38;4972892;28;20385;-66
2022/11/02 06:53:04;;;;;;;3.72;1.05;;;;;;;19.59;42.47;101720.25;4972901;28;20058;-65
2022/11/02 06:55:29;;;;;;;5.03;0.77;;;;;;;19.59;42.84;101720.25;4974126;28;20039;-65
2022/11/02 06:57:54;;;;;;;14.18;1.15;;;;;;;19.58;42.65;101717.69;4974092;28;20034;-65
2022/11/02 07:00:20;;;;;;;7.57;0.82;;;;;;;19.64;43.36;101719.75;4974030;28;20039;-65
2022/11/02 07:02:46;;;;;;;6.60;1.13;;;;;;;19.67;42.46;101717.56;4972863;28;20122;-65
2022/11/02 07:05:12;;;;;;;6.38;1.48;;;;;;;19.73;42.05;101721.47;4957049;28;20038;-65
2022/11/02 07:07:38;;;;;;;11.05;1.10;;;;;;;19.79;43.02;101723.53;4956398;28;20043;-65
2022/11/02 07:10:03;;;;;;;6.28;1.70;;;;;;;19.81;42.41;101729.66;4972759;28;20382;-65
2022/11/02 07:12:31;;;;;;;7.47;1.10;;;;;;;19.85;42.52;101741.88;4956620;28;20031;-65
2022/11/02 07:14:56;;;;;;;4.45;0.95;;;;;;;19.89;42.70;101747.84;4956658;28;20031;-65
2022/11/02 07:17:22;;;;;;;6.82;1.30;;;;;;;19.91;42.72;101746.66;4972599;28;20114;-65
2022/11/02 07:19:47;;;;;;;10.93;1.63;;;;;;;19.98;42.19;101764.03;4940970;28;20058;-65
2022/11/02 07:22:12;;;;;;;3.38;1.17;;;;;;;20.02;42.30;101759.94;4972692;28;20035;-66
2022/11/02 07:24:38;;;;;;;10.75;1.23;;;;;;;20.09;42.57;101771.84;4973798;28;20035;-65
2022/11/02 07:27:03;;;;;;;2.90;0.75;;;;;;;20.15;42.43;101775.78;4972560;28;20035;-65
2022/11/02 07:29:28;;;;;;;2.28;0.70;;;;;;;20.22;42.21;101782.22;4972506;28;20030;-65
2022/11/02 07:31:54;;;;;;;6.00;1.10;;;;;;;20.27;42.30;101786.19;4972895;28;20039;-65
2022/11/02 07:34:20;;;;;;;10.00;1.23;;;;;;;20.35;41.92;101789.94;4956315;28;20061;-65
2022/11/02 07:36:45;;;;;;;4.85;1.30;;;;;;;20.41;42.30;101798.25;4972397;28;20076;-65
2022/11/02 07:39:10;;;;;;;8.85;1.75;;;;;;;20.48;41.39;101799.31;4972526;28;20049;-65
2022/11/02 07:41:36;;;;;;;12.25;1.17;;;;;;;20.57;41.82;101803.75;4940343;28;20035;-65
2022/11/02 07:44:01;;;;;;;10.77;1.48;;;;;;;20.65;41.36;101803.72;4974042;28;20488;-65
2022/11/02 07:46:27;;;;;;;6.55;1.25;;;;;;;20.74;41.90;101799.13;4972073;28;20496;-65
2022/11/02 07:48:52;;;;;;;3.13;1.00;;;;;;;20.78;41.84;101805.91;4971677;28;20452;-65
2022/11/02 07:51:20;;;;;;;9.18;1.73;;;;;;;20.76;42.06;101808.84;4956325;28;20063;-66
2022/11/02 07:53:46;;;;;;;10.55;2.13;;;;;;;20.83;42.20;101806.25;4972399;28;20047;-66
2022/11/02 07:56:11;;;;;;;9.65;1.95;;;;;;;20.84;41.81;101805.25;4956664;28;20066;-65
2022/11/02 07:58:36;;;;;;;7.00;1.10;;;;;;;20.90;41.29;101815.44;4972364;28;20039;-65
2022/11/02 08:01:02;;;;;;;8.77;1.58;;;;;;;20.96;42.06;101806.59;4956108;28;20031;-65
2022/11/02 08:03:28;;;;;;;7.93;1.30;;;;;;;20.99;41.07;101819.03;4973541;28;20050;-65
2022/11/02 08:05:54;;;;;;;9.23;1.10;;;;;;;21.05;41.80;101815.59;4974277;28;20106;-65
2022/11/02 08:08:23;;;;;;;4.63;0.98;;;;;;;21.12;41.13;101808.47;4975722;28;20038;-66
2022/11/02 08:10:50;;;;;;;7.32;1.00;;;;;;;21.19;41.43;101814.94;4960239;28;20023;-65
2022/11/02 08:13:19;;;;;;;7.68;1.63;;;;;;;21.33;40.59;101823.22;4959466;28;20489;-65
2022/11/02 08:15:50;;;;;;;9.98;1.88;;;;;;;21.47;40.58;101830.66;4975655;28;20038;-66
2022/11/02 08:18:18;;;;;;;7.25;1.70;;;;;;;21.59;41.33;101831.16;4975556;28;20102;-65
2022/11/02 08:20:47;;;;;;;5.28;1.25;;;;;;;21.68;41.18;101832.81;4959332;28;20031;-65
2022/11/02 08:23:14;;;;;;;6.05;0.90;;;;;;;21.81;40.36;101837.69;4959646;28;20027;-65
2022/11/02 08:25:40;;;;;;;4.45;1.13;;;;;;;21.90;41.05;101833.94;4976019;28;20034;-65
2022/11/02 08:28:07;;;;;;;8.73;1.02;;;;;;;22.05;40.12;101834.88;4975449;28;20488;-66
2022/11/02 08:30:32;;;;;;;8.38;1.67;;;;;;;22.22;40.78;101839.19;4976755;28;20062;-66
2022/11/02 08:33:17;;;;;;;9.75;1.40;;;;;;;22.40;40.21;101834.31;4959244;28;20039;-65
2022/11/02 08:35:44;;;;;;;9.45;1.30;;;;;;;22.59;39.53;101843.88;4975140;28;20031;-66
2022/11/02 08:38:09;;;;;;;5.30;0.88;;;;;;;22.81;40.35;101844.97;4975606;28;20077;-66
2022/11/02 08:40:35;;;;;;;7.53;1.60;;;;;;;22.95;39.68;101860.50;4975176;28;20034;-65
2022/11/02 08:43:06;;;;;;;8.88;1.95;;;;;;;23.15;40.13;101861.69;4975102;28;20050;-66
2022/11/02 08:45:33;;;;;;;6.63;0.98;;;;;;;23.34;40.07;101855.69;4975099;28;20404;-66
2022/11/02 08:47:58;;;;;;;6.30;1.20;;;;;;;23.56;39.52;101865.72;4975340;28;20039;-65
2022/11/02 08:50:25;;;;;;;10.77;1.33;;;;;;;23.77;39.64;101876.78;4958869;28;20125;-66
2022/11/02 08:52:50;;;;;;;10.30;1.35;;;;;;;23.90;38.80;101867.88;4975332;28;20392;-66
2022/11/02 08:55:16;;;;;;;8.88;1.40;;;;;;;24.02;38.78;101865.50;4958878;28;20031;-66
2022/11/02 08:57:49;;;;;;;5.28;1.42;;;;;;;24.25;38.10;101866.25;4958774;28;20027;-66
2022/11/02 09:00:16;;;;;;;5.43;0.90;;;;;;;24.41;38.03;101866.00;4958651;28;20034;-66
2022/11/02 09:02:42;;;;;;;9.18;1.60;;;;;;;24.63;38.24;101859.47;4942795;28;20069;-66
2022/11/02 09:05:08;;;;;;;6.53;0.88;;;;;;;24.84;37.46;101872.38;4959158;28;20060;-66
2022/11/02 09:07:33;;;;;;;5.80;1.42;;;;;;;25.26;37.38;101868.72;4975036;28;20035;-66
2022/11/02 09:09:59;;;;;;;12.77;1.20;;;;;;;25.53;36.95;101856.88;4975928;28;20105;-66
2022/11/02 09:12:24;;;;;;;4.28;0.95;;;;;;;25.68;36.60;101857.63;4958472;28;20045;-65
2022/11/02 09:14:50;;;;;;;6.80;1.30;;;;;;;26.01;35.95;101860.50;4974760;28;20035;-66
2022/11/02 09:17:15;;;;;;;7.43;1.48;;;;;;;26.30;36.03;101859.38;4958274;28;20038;-66
2022/11/02 09:19:40;;;;;;;3.85;1.42;;;;;;;26.67;36.04;101856.06;4958727;28;20039;-66
2022/11/02 09:22:06;;;;;;;7.25;1.35;;;;;;;26.90;35.85;101858.44;4958389;28;20037;-66
2022/11/02 09:24:32;;;;;;;9.77;1.75;;;;;;;27.22;35.59;101870.50;4974318;28;20087;-66
2022/11/02 09:26:57;;;;;;;3.30;0.93;;;;;;;27.56;35.64;101873.00;4957939;28;20074;-66
2022/11/02 09:29:23;;;;;;;5.65;1.13;;;;;;;27.82;35.03;101867.44;4974307;28;20062;-66
2022/11/02 09:31:48;;;;;;;6.13;1.10;;;;;;;28.16;33.79;101886.41;4974837;28;20093;-67
2022/11/02 09:34:14;;;;;;;10.25;1.50;;;;;;;28.45;33.57;101867.59;4974120;28;20047;-66
2022/11/02 09:36:40;;;;;;;8.50;1.85;;;;;;;28.64;33.87;101866.66;4973994;28;20034;-67
2022/11/02 09:39:05;;;;;;;6.47;1.30;;;;;;;28.81;33.91;101876.09;4958009;28;20402;-67
2022/11/02 09:41:33;;;;;;;2.05;0.73;;;;;;;29.02;32.69;101878.44;4974107;28;20412;-67
2022/11/02 09:44:12;;;;;;;9.77;1.42;;;;;;;29.23;32.79;101877.25;4975674;28;20088;-67
2022/11/02 09:46:39;;;;;;;5.07;1.17;;;;;;;29.41;32.34;101880.88;4973880;28;20077;-66
2022/11/02 09:49:11;;;;;;;6.47;1.48;;;;;;;29.58;32.01;101880.28;4957573;28;20031;-68
2022/11/02 09:51:43;;;;;;;8.82;1.67;;;;;;;29.64;31.75;101880.22;4973869;28;20035;-67
2022/11/02 09:54:17;;;;;;;4.72;1.63;;;;;;;29.75;32.04;101871.16;4973742;28;20042;-66
2022/11/02 09:56:43;;;;;;;5.88;1.40;;;;;;;29.80;31.88;101873.25;4973918;28;20037;-67
2022/11/02 09:59:20;;;;;;;10.00;1.60;;;;;;;29.89;31.44;101881.03;4942024;28;20037;-67
2022/11/02 10:01:54;;;;;;;6.13;1.33;;;;;;;30.02;32.11;101888.31;4973870;28;20468;-67
2022/11/02 10:04:38;;;;;;;11.60;1.55;;;;;;;30.07;31.31;101891.22;4973571;28;20046;-68
2022/11/02 10:07:28;;;;;;;8.10;1.25;;;;;;;30.12;31.08;101874.78;4974782;28;20092;-67
2022/11/02 10:10:02;;;;;;;8.27;1.20;;;;;;;30.14;30.85;101875.41;4973563;28;20045;-67
2022/11/02 10:12:36;;;;;;;9.93;1.27;;;;;;;30.21;31.13;101880.84;4973447;28;20411;-66
2022/11/02 10:15:11;;;;;;;3.92;1.02;;;;;;;30.35;30.54;101882.31;4972966;28;20035;-69
2022/11/02 10:17:37;;;;;;;10.27;1.33;;;;;;;30.42;30.88;101888.66;4973131;28;20035;-68
2022/11/02 10:20:09;;;;;;;7.85;1.70;;;;;;;30.51;30.42;101898.31;4973843;28;20034;-69
2022/11/02 10:22:38;;;;;;;3.03;1.10;;;;;;;30.70;30.85;101896.34;4973340;28;20085;-69
2022/11/02 10:25:05;;;;;;;5.75;1.25;;;;;;;30.88;30.68;101899.00;4957123;28;20026;-68
2022/11/02 10:27:36;;;;;;;13.63;1.77;;;;;;;31.06;30.44;101902.59;4972558;28;20043;-69
2022/11/02 10:30:04;;;;;;;9.45;1.65;;;;;;;31.18;30.17;101899.84;4973136;28;20070;-69
2022/11/02 10:32:31;;;;;;;7.15;1.33;;;;;;;31.23;29.89;101902.75;4974312;28;20457;-69
2022/11/02 10:34:57;;;;;;;3.92;1.20;;;;;;;31.17;30.05;101905.59;4973369;28;20042;-68
2022/11/02 10:37:32;;;;;;;10.00;1.70;;;;;;;31.25;29.75;101906.09;4956989;28;20054;-68
2022/11/02 10:40:00;;;;;;;4.68;1.08;;;;;;;31.22;29.78;101914.88;4974457;28;20178;-68
2022/11/02 10:43:05;;;;;;;8.45;1.35;;;;;;;31.21;30.21;101904.91;4974325;28;20031;-69
2022/11/02 10:46:03;;;;;;;4.85;1.13;;;;;;;31.03;30.09;101910.53;4971887;28;20035;-69
2022/11/02 10:48:58;;;;;;;6.80;1.27;;;;;;;30.63;30.55;101906.66;4957142;28;20472;-68
2022/11/02 10:51:23;;;;;;;3.78;1.58;;;;;;;30.38;30.72;101910.41;4956728;28;20039;-68
2022/11/02 10:53:51;;;;;;;7.72;1.20;;;;;;;30.80;29.96;101925.13;4972896;28;20065;-68
2022/11/02 10:56:23;;;;;;;5.07;1.05;;;;;;;30.66;30.24;101922.78;4972859;28;20019;-68
2022/11/02 10:59:01;;;;;;;4.63;1.67;;;;;;;30.87;29.85;101912.03;4973227;28;20022;-68
2022/11/02 11:01:28;;;;;;;11.07;3.28;;;;;;;30.98;29.83;101915.94;4972837;28;20503;-68
2022/11/02 11:03:57;;;;;;;4.93;1.35;;;;;;;30.77;29.86;101902.59;4972779;28;20423;-68
2022/11/02 11:06:24;;;;;;;6.55;2.33;;;;;;;31.04;29.25;101918.63;4973893;28;20034;-68
2022/11/02 11:08:52;;;;;;;7.78;1.48;;;;;;;31.17;29.70;101913.91;4956829;28;20039;-68
2022/11/02 11:11:21;;;;;;;7.30;1.50;;;;;;;31.30;29.36;101906.22;4971992;28;20559;-67
2022/11/02 11:13:54;;;;;;;4.05;1.10;;;;;;;31.41;29.04;101904.56;4972941;28;20022;-68
2022/11/02 11:16:33;;;;;;;6.75;1.25;;;;;;;31.43;29.01;101900.47;4973510;28;20116;-68
2022/11/02 11:18:59;;;;;;;2.55;1.20;;;;;;;31.12;29.30;101895.25;4972565;28;20455;-68
2022/11/02 11:21:39;;;;;;;7.68;1.05;;;;;;;31.18;29.15;101901.78;4956452;28;20039;-68
2022/11/02 11:24:25;;;;;;;6.78;1.23;;;;;;;31.25;28.87;101900.56;4956519;28;20038;-68
2022/11/02 11:27:12;;;;;;;11.02;2.17;;;;;;;31.18;29.37;101894.31;4972432;28;20125;-68
2022/11/02 11:29:40;;;;;;;10.50;1.58;;;;;;;31.25;28.93;101900.56;4972365;28;20131;-68
2022/11/02 11:32:14;;;;;;;8.27;1.10;;;;;;;30.89;29.20;101897.94;4972893;28;20035;-68
2022/11/02 11:34:40;;;;;;;8.60;1.50;;;;;;;30.49;29.57;101895.78;4956261;28;20422;-69
2022/11/02 11:37:08;;;;;;;5.32;1.45;;;;;;;30.17;29.79;101896.19;4973540;28;20030;-68
2022/11/02 11:39:34;;;;;;;9.45;1.33;;;;;;;30.29;29.51;101894.34;4974241;28;20077;-68
2022/11/02 11:42:02;;;;;;;5.75;1.20;;;;;;;30.33;29.65;101901.94;4976337;28;20484;-68
2022/11/02 11:44:27;;;;;;;3.65;0.90;;;;;;;30.22;29.73;101899.09;4960040;28;20029;-68